Time;durP1;ratioP1;P1;durP2;ratioP2;P2;SDS_P1;SDS_P2;PMS_P1;PMS_P2;Temp;Humidity;BMP_temperature;BMP_pressure;BME280_temperature;BME280_humidity;BME280_pressure;Samples;Min_cycle;Max_cycle;Signal;HPM_P1;HPM_P2
2022/06/19 00:01:52;;;;;;;;;17.33;17.33;26.10;37.20;;;;;;5094914;28;8782;-77
2022/06/19 00:04:18;;;;;;;;;17.33;17.00;26.10;37.30;;;;;;5095079;28;8882;-76
2022/06/19 00:06:44;;;;;;;;;19.33;19.33;26.00;37.50;;;;;;5094802;28;8771;-78
2022/06/19 00:09:10;;;;;;;;;19.67;19.67;26.10;37.60;;;;;;5076764;28;8904;-77
2022/06/19 00:11:39;;;;;;;;;18.33;18.33;26.10;37.60;;;;;;5094817;28;9429;-77
2022/06/19 00:14:06;;;;;;;;;20.33;20.33;26.00;37.60;;;;;;5094666;28;8756;-79
2022/06/19 00:16:33;;;;;;;;;19.00;18.67;26.00;37.60;;;;;;5094690;28;8779;-78
2022/06/19 00:18:59;;;;;;;;;11.00;11.00;25.90;37.40;;;;;;5094460;28;8823;-78
2022/06/19 00:21:25;;;;;;;;;16.33;16.33;25.90;37.50;;;;;;5094706;28;8778;-79
2022/06/19 00:23:51;;;;;;;;;16.00;16.00;25.90;37.90;;;;;;5094703;28;8776;-78
2022/06/19 00:26:17;;;;;;;;;21.67;21.67;25.90;38.00;;;;;;5076716;28;8776;-78
2022/06/19 00:28:46;;;;;;;;;18.00;18.00;25.90;37.90;;;;;;5094438;28;8807;-78
2022/06/19 00:31:12;;;;;;;;;20.00;20.00;25.90;38.00;;;;;;5094715;28;8804;-78
2022/06/19 00:33:38;;;;;;;;;19.00;19.00;25.80;37.90;;;;;;5094500;28;8898;-77
2022/06/19 00:36:04;;;;;;;;;18.67;18.67;25.80;37.90;;;;;;5094504;28;8760;-77
2022/06/19 00:38:30;;;;;;;;;20.00;20.00;25.70;37.90;;;;;;5094662;28;8791;-77
2022/06/19 00:40:57;;;;;;;;;19.00;19.00;25.80;38.10;;;;;;5094451;28;8828;-78
2022/06/19 00:43:24;;;;;;;;;21.00;20.67;25.80;37.90;;;;;;5094657;28;8771;-76
2022/06/19 00:45:51;;;;;;;;;19.67;19.67;25.70;37.90;;;;;;5094683;28;8794;-78
2022/06/19 00:48:29;;;;;;;;;18.00;18.00;25.70;38.00;;;;;;5095158;28;8796;-78
2022/06/19 00:50:59;;;;;;;;;20.33;20.33;25.70;38.00;;;;;;5098814;28;8771;-78
2022/06/19 00:53:31;;;;;;;;;19.33;19.33;25.60;38.30;;;;;;5099060;28;8752;-79
2022/06/19 00:55:57;;;;;;;;;16.33;16.33;25.50;38.50;;;;;;5098509;28;8776;-79
2022/06/19 00:58:29;;;;;;;;;18.67;18.67;25.50;38.60;;;;;;5098425;28;8907;-75
2022/06/19 01:00:59;;;;;;;;;16.33;16.33;25.50;38.60;;;;;;5098623;28;8771;-77
2022/06/19 01:03:53;;;;;;;;;16.00;16.00;25.50;38.70;;;;;;5098288;28;8780;-76
2022/06/19 01:06:20;;;;;;;;;20.00;20.00;25.50;38.70;;;;;;5098299;28;8779;-77
2022/06/19 01:08:47;;;;;;;;;19.00;19.00;25.50;39.00;;;;;;5098397;28;8827;-76
2022/06/19 01:11:15;;;;;;;;;19.67;19.67;25.40;38.90;;;;;;5098223;28;8779;-75
2022/06/19 01:13:41;;;;;;;;;18.67;18.67;25.40;39.10;;;;;;5098381;28;9451;-76
2022/06/19 01:16:08;;;;;;;;;13.33;13.33;25.40;38.90;;;;;;5080098;28;9458;-77
2022/06/19 01:18:36;;;;;;;;;11.33;11.33;25.40;38.80;;;;;;5097918;28;9474;-77
2022/06/19 01:21:47;;;;;;;;;19.33;19.33;25.40;38.80;;;;;;5098226;28;8849;-76
2022/06/19 01:24:33;;;;;;;;;15.67;15.67;25.30;39.00;;;;;;5015822;28;8806;-78
2022/06/19 01:27:02;;;;;;;;;16.33;16.33;25.30;39.10;;;;;;5015699;28;8811;-77
2022/06/19 01:29:31;;;;;;;;;19.33;19.33;25.30;38.80;;;;;;5015617;28;8812;-78
2022/06/19 01:32:01;;;;;;;;;17.33;17.33;25.30;38.90;;;;;;5015641;28;8776;-76
2022/06/19 01:34:31;;;;;;;;;16.00;16.00;25.30;38.70;;;;;;5015678;28;8850;-76
2022/06/19 01:36:57;;;;;;;;;16.00;16.00;25.30;38.60;;;;;;5015563;28;8796;-76
2022/06/19 01:39:24;;;;;;;;;14.67;14.67;25.30;38.70;;;;;;5015746;28;8776;-76
2022/06/19 01:41:50;;;;;;;;;17.67;17.67;25.30;38.70;;;;;;5015784;28;8880;-77
2022/06/19 01:44:16;;;;;;;;;19.00;19.00;25.30;38.70;;;;;;4999061;28;8773;-76
2022/06/19 01:46:41;;;;;;;;;21.00;18.33;25.20;38.80;;;;;;5015581;28;8781;-76
2022/06/19 01:49:07;;;;;;;;;16.67;16.67;25.30;38.90;;;;;;5015259;28;8824;-78
2022/06/19 01:51:34;;;;;;;;;15.33;15.33;25.30;39.00;;;;;;5013140;28;8789;-77
2022/06/19 01:54:08;;;;;;;;;19.33;19.33;25.30;39.10;;;;;;5015319;28;8803;-76
2022/06/19 01:56:33;;;;;;;;;16.67;16.67;25.30;40.10;;;;;;5015575;28;8764;-75
2022/06/19 01:59:06;;;;;;;;;9.67;9.67;25.30;39.10;;;;;;5071140;28;9462;-78
2022/06/19 02:01:35;;;;;;;;;17.00;17.00;25.20;39.20;;;;;;5058326;28;8786;-74
2022/06/19 02:04:01;;;;;;;;;16.00;16.00;25.10;39.30;;;;;;5077165;28;8828;-76
2022/06/19 02:06:35;;;;;;;;;21.00;21.00;25.00;39.50;;;;;;5076855;28;8758;-76
2022/06/19 02:09:02;;;;;;;;;20.00;20.00;25.00;39.60;;;;;;5077132;28;8818;-76
2022/06/19 02:11:30;;;;;;;;;21.67;21.67;25.00;39.80;;;;;;5076738;28;8797;-76
2022/06/19 02:13:58;;;;;;;;;20.00;20.00;25.00;40.70;;;;;;5076699;28;8773;-76
2022/06/19 02:16:25;;;;;;;;;14.67;14.67;25.00;39.60;;;;;;5076713;28;9668;-76
2022/06/19 02:18:53;;;;;;;;;19.00;19.00;25.00;39.80;;;;;;5076555;28;8815;-76
2022/06/19 02:21:22;;;;;;;;;18.33;18.33;24.90;39.80;;;;;;5076866;28;8777;-76
2022/06/19 02:23:49;;;;;;;;;18.00;18.00;24.90;39.90;;;;;;5076395;28;8774;-76
2022/06/19 02:26:16;;;;;;;;;17.67;17.67;24.90;39.70;;;;;;5076750;28;8778;-77
2022/06/19 02:28:49;;;;;;;;;18.00;18.00;24.80;39.70;;;;;;5076490;28;9411;-77
2022/06/19 02:31:16;;;;;;;;;19.33;19.33;24.80;39.80;;;;;;5076739;28;8796;-79
2022/06/19 02:33:55;;;;;;;;;18.67;18.67;24.60;40.10;;;;;;5058624;28;8774;-75
2022/06/19 02:36:57;;;;;;;;;24.00;24.00;24.60;40.20;;;;;;5076659;28;8770;-76
2022/06/19 02:39:45;;;;;;;;;20.00;20.00;24.60;40.50;;;;;;5014466;28;8816;-76
2022/06/19 02:42:30;;;;;;;;;16.33;16.33;24.60;40.40;;;;;;5014406;28;8761;-76
2022/06/19 02:45:01;;;;;;;;;17.67;17.67;24.60;40.60;;;;;;5014467;28;9393;-76
2022/06/19 02:47:28;;;;;;;;;23.00;23.00;24.50;40.60;;;;;;5014256;28;8788;-76
2022/06/19 02:49:54;;;;;;;;;21.00;21.00;24.50;40.90;;;;;;5014200;28;8784;-76
2022/06/19 02:52:20;;;;;;;;;22.33;22.33;24.50;40.80;;;;;;5014184;28;8894;-76
2022/06/19 02:54:47;;;;;;;;;20.33;20.33;24.50;40.90;;;;;;4997823;28;9074;-76
2022/06/19 02:57:14;;;;;;;;;19.67;19.67;24.50;41.00;;;;;;5014158;28;8757;-75
2022/06/19 02:59:40;;;;;;;;;20.33;20.33;24.50;40.90;;;;;;4997628;28;8819;-76
2022/06/19 03:02:07;;;;;;;;;18.33;18.33;24.50;41.20;;;;;;5013979;28;8784;-75
2022/06/19 03:05:00;;;;;;;;;19.67;19.67;24.40;41.10;;;;;;5013919;28;8780;-78
2022/06/19 03:07:29;;;;;;;;;18.33;18.33;24.60;40.90;;;;;;5002337;28;8828;-77
2022/06/19 03:09:56;;;;;;;;;23.33;23.33;24.60;40.70;;;;;;5013897;28;9570;-78
2022/06/19 03:12:22;;;;;;;;;17.67;17.67;24.60;40.70;;;;;;5019995;28;8790;-78
2022/06/19 03:14:49;;;;;;;;;21.67;21.67;24.60;40.80;;;;;;5075446;28;8786;-75
2022/06/19 03:17:20;;;;;;;;;20.00;20.00;24.60;40.50;;;;;;5075438;28;8801;-77
2022/06/19 03:19:46;;;;;;;;;20.00;18.67;24.60;40.40;;;;;;5075629;28;8809;-76
2022/06/19 03:22:12;;;;;;;;;22.67;22.67;24.50;40.40;;;;;;5075331;28;8830;-77
2022/06/19 03:24:39;;;;;;;;;24.67;23.67;24.50;40.80;;;;;;5075324;28;8884;-76
2022/06/19 03:27:06;;;;;;;;;17.33;17.33;24.40;40.90;;;;;;5075369;28;8777;-77
2022/06/19 03:29:32;;;;;;;;;26.33;24.33;24.40;41.00;;;;;;5075197;28;8916;-76
2022/06/19 03:31:58;;;;;;;;;19.67;19.67;24.40;41.00;;;;;;5075221;28;8762;-79
2022/06/19 03:34:24;;;;;;;;;19.33;19.33;24.40;41.10;;;;;;5075120;28;8788;-77
2022/06/19 03:36:51;;;;;;;;;19.33;19.33;24.40;41.20;;;;;;5075054;28;8742;-76
2022/06/19 03:39:17;;;;;;;;;19.33;19.33;24.50;41.00;;;;;;5075300;28;8758;-76
2022/06/19 03:41:43;;;;;;;;;20.67;20.67;24.40;41.20;;;;;;5074987;28;8762;-76
2022/06/19 03:44:09;;;;;;;;;22.33;22.33;24.40;41.20;;;;;;5074929;28;8777;-77
2022/06/19 03:46:36;;;;;;;;;18.00;18.00;24.40;41.10;;;;;;5074887;28;8870;-76
2022/06/19 03:49:03;;;;;;;;;18.33;18.33;24.50;41.20;;;;;;5074787;28;8874;-76
2022/06/19 03:51:29;;;;;;;;;18.00;18.00;24.40;41.60;;;;;;5075076;28;8774;-76
2022/06/19 03:53:55;;;;;;;;;20.67;20.67;24.40;41.60;;;;;;5074879;28;8762;-76
2022/06/19 03:56:25;;;;;;;;;19.67;19.67;24.50;41.40;;;;;;5074985;28;8851;-76
2022/06/19 03:58:51;;;;;;;;;22.67;22.67;24.40;41.30;;;;;;5074684;28;8881;-77
2022/06/19 04:01:24;;;;;;;;;23.33;23.33;24.30;41.90;;;;;;5074922;28;8792;-76
2022/06/19 04:03:52;;;;;;;;;21.00;21.00;24.50;41.60;;;;;;5074834;28;8758;-76
2022/06/19 04:06:20;;;;;;;;;21.67;21.67;24.50;41.50;;;;;;5074935;28;8758;-76
2022/06/19 04:08:47;;;;;;;;;21.33;21.33;24.50;41.40;;;;;;5074472;28;9498;-77
2022/06/19 04:11:18;;;;;;;;;16.33;16.33;24.50;41.60;;;;;;5074684;28;8844;-76
2022/06/19 04:13:44;;;;;;;;;23.67;23.67;24.50;41.30;;;;;;5074860;28;9380;-77
2022/06/19 04:16:19;;;;;;;;;19.33;19.33;24.60;41.30;;;;;;5074518;28;8761;-76
2022/06/19 04:18:46;;;;;;;;;18.67;18.67;24.40;41.50;;;;;;5074271;28;8825;-75
2022/06/19 04:21:15;;;;;;;;;16.33;16.33;24.40;41.80;;;;;;5074369;28;8958;-77
2022/06/19 04:23:44;;;;;;;;;21.67;21.67;24.50;41.90;;;;;;5073855;28;9525;-75
2022/06/19 04:26:11;;;;;;;;;17.00;17.00;24.50;41.80;;;;;;5074489;28;8766;-76
2022/06/19 04:28:37;;;;;;;;;20.00;20.00;24.50;41.70;;;;;;5073903;28;8817;-76
2022/06/19 04:31:04;;;;;;;;;20.33;20.33;24.50;41.80;;;;;;5074150;28;8765;-76
2022/06/19 04:33:32;;;;;;;;;18.00;18.00;24.60;41.90;;;;;;5074474;28;8783;-76
2022/06/19 04:35:58;;;;;;;;;17.67;17.67;24.40;41.80;;;;;;5057139;28;8778;-77
2022/06/19 04:38:24;;;;;;;;;17.67;17.67;24.50;41.90;;;;;;5075459;28;8782;-77
2022/06/19 04:40:50;;;;;;;;;24.33;24.33;24.60;41.70;;;;;;5092499;28;8798;-76
2022/06/19 04:43:16;;;;;;;;;21.67;21.67;24.70;41.60;;;;;;5094335;28;8794;-76
2022/06/19 04:45:42;;;;;;;;;25.00;24.00;24.70;41.50;;;;;;5085931;28;8766;-77
2022/06/19 04:48:09;;;;;;;;;23.67;23.67;24.50;41.90;;;;;;5074053;28;8805;-77
2022/06/19 04:50:35;;;;;;;;;21.00;21.00;24.60;41.90;;;;;;5074124;28;8789;-77
2022/06/19 04:53:01;;;;;;;;;23.33;23.33;24.70;41.80;;;;;;5074128;28;8750;-77
2022/06/19 04:55:27;;;;;;;;;22.00;22.00;24.60;41.60;;;;;;5074077;28;8853;-77
2022/06/19 04:57:53;;;;;;;;;22.33;22.33;24.40;42.10;;;;;;5074244;28;8853;-77
2022/06/19 05:00:20;;;;;;;;;23.33;23.33;24.60;42.10;;;;;;5078428;28;8871;-78
2022/06/19 05:02:54;;;;;;;;;25.33;25.33;24.70;42.20;;;;;;5083749;28;8758;-78
2022/06/19 05:05:21;;;;;;;;;20.00;20.00;24.90;42.00;;;;;;5094243;28;8755;-77
2022/06/19 05:07:47;;;;;;;;;25.67;24.33;24.90;41.80;;;;;;5094078;28;8776;-76
2022/06/19 05:10:14;;;;;;;;;21.33;21.33;24.80;41.10;;;;;;5094160;28;8783;-77
2022/06/19 05:12:40;;;;;;;;;21.33;21.33;24.80;41.70;;;;;;5094267;28;8764;-78
2022/06/19 05:15:07;;;;;;;;;21.33;21.33;24.90;41.70;;;;;;5094157;28;8844;-77
2022/06/19 05:17:33;;;;;;;;;21.33;21.33;25.00;41.80;;;;;;5093704;28;8798;-78
2022/06/19 05:20:00;;;;;;;;;22.00;22.00;25.10;42.40;;;;;;5094244;28;8766;-78
2022/06/19 05:22:26;;;;;;;;;18.67;18.67;25.20;41.40;;;;;;5094037;28;8759;-77
2022/06/19 05:24:51;;;;;;;;;21.00;21.00;25.20;41.40;;;;;;5094128;28;8844;-78
2022/06/19 05:27:17;;;;;;;;;21.33;21.33;25.30;41.50;;;;;;5094072;28;8740;-78
2022/06/19 05:29:43;;;;;;;;;21.67;21.67;25.30;41.30;;;;;;5094135;28;8823;-78
2022/06/19 05:32:09;;;;;;;;;25.00;25.00;25.50;41.30;;;;;;5093927;28;9420;-78
2022/06/19 05:34:37;;;;;;;;;19.67;19.67;25.50;40.90;;;;;;5077141;28;8796;-78
2022/06/19 05:37:04;;;;;;;;;22.33;22.33;25.30;40.60;;;;;;5077298;28;8786;-78
2022/06/19 05:39:30;;;;;;;;;21.67;21.67;25.10;41.30;;;;;;5077401;28;8887;-78
2022/06/19 05:41:57;;;;;;;;;17.00;17.00;25.20;41.50;;;;;;5077555;28;8786;-78
2022/06/19 05:44:28;;;;;;;;;16.67;16.67;25.30;41.10;;;;;;5059543;28;8781;-79
2022/06/19 05:46:54;;;;;;;;;19.00;19.00;25.20;41.10;;;;;;5077034;28;8750;-78
2022/06/19 05:49:20;;;;;;;;;20.33;20.33;25.30;41.10;;;;;;5077380;28;8810;-78
2022/06/19 05:51:46;;;;;;;;;21.00;21.00;25.50;40.90;;;;;;5077174;28;8823;-77
2022/06/19 05:54:12;;;;;;;;;21.33;21.33;25.60;40.70;;;;;;5077075;28;8869;-78
2022/06/19 05:56:38;;;;;;;;;20.00;20.00;25.70;40.60;;;;;;5077105;28;8959;-78
2022/06/19 05:59:04;;;;;;;;;19.67;19.67;25.80;40.80;;;;;;5077059;28;8774;-78
2022/06/19 06:01:31;;;;;;;;;19.67;19.67;25.80;40.60;;;;;;5076647;28;8804;-78
2022/06/19 06:03:59;;;;;;;;;18.00;18.00;25.80;40.60;;;;;;5076904;28;8758;-78
2022/06/19 06:06:29;;;;;;;;;22.33;22.33;25.80;40.90;;;;;;5077040;28;8777;-77
2022/06/19 06:08:55;;;;;;;;;16.33;16.33;25.90;40.90;;;;;;5077203;28;8848;-77
2022/06/19 06:11:21;;;;;;;;;18.67;18.67;26.00;40.90;;;;;;5077021;28;9517;-77
2022/06/19 06:13:48;;;;;;;;;20.33;20.33;26.10;41.00;;;;;;5076686;28;8839;-76
2022/06/19 06:16:16;;;;;;;;;18.67;18.67;26.20;40.20;;;;;;5076128;28;8773;-77
2022/06/19 06:18:43;;;;;;;;;7.00;7.00;26.10;40.00;;;;;;5076512;28;8802;-77
2022/06/19 06:21:15;;;;;;;;;21.00;21.00;26.30;40.10;;;;;;5076876;28;8789;-78
2022/06/19 06:23:42;;;;;;;;;17.33;17.33;26.40;39.50;;;;;;5076826;28;8853;-75
2022/06/19 06:26:14;;;;;;;;;20.33;20.33;26.30;39.30;;;;;;5076766;28;8794;-77
2022/06/19 06:28:44;;;;;;;;;18.33;18.33;26.40;39.40;;;;;;5076464;28;8809;-78
2022/06/19 06:31:10;;;;;;;;;19.00;19.00;26.40;39.30;;;;;;5075964;28;8758;-77
2022/06/19 06:33:36;;;;;;;;;21.67;21.33;26.60;39.20;;;;;;5076458;28;8766;-77
2022/06/19 06:36:03;;;;;;;;;19.67;19.67;26.70;39.10;;;;;;5076283;28;8793;-77
2022/06/19 06:38:29;;;;;;;;;19.33;19.33;26.80;39.20;;;;;;5058539;28;8801;-77
2022/06/19 06:40:55;;;;;;;;;18.33;18.33;26.70;39.00;;;;;;5076208;28;8822;-77
2022/06/19 06:43:22;;;;;;;;;19.33;19.33;26.80;38.50;;;;;;5085750;28;8764;-76
2022/06/19 06:45:51;;;;;;;;;18.33;18.33;26.90;38.30;;;;;;5081843;28;8776;-76
2022/06/19 06:48:18;;;;;;;;;16.00;16.00;27.00;38.00;;;;;;5096487;28;9437;-76
2022/06/19 06:50:44;;;;;;;;;20.00;20.00;27.00;38.00;;;;;;5080122;28;8789;-76
2022/06/19 06:53:10;;;;;;;;;18.00;18.00;26.90;37.80;;;;;;5076179;28;8769;-76
2022/06/19 06:55:41;;;;;;;;;20.33;19.67;27.10;37.70;;;;;;5076052;28;8758;-76
2022/06/19 06:58:06;;;;;;;;;18.00;18.00;27.10;37.30;;;;;;5075734;28;8766;-76
2022/06/19 07:00:32;;;;;;;;;16.00;16.00;27.20;37.30;;;;;;5075371;28;8805;-76
2022/06/19 07:02:59;;;;;;;;;20.33;20.33;27.30;37.20;;;;;;5075900;28;8766;-76
2022/06/19 07:05:26;;;;;;;;;18.67;18.67;27.30;36.70;;;;;;5075577;28;8774;-76
2022/06/19 07:07:52;;;;;;;;;16.67;16.67;27.40;36.70;;;;;;5075665;28;8782;-76
2022/06/19 07:10:19;;;;;;;;;15.67;15.67;27.40;36.50;;;;;;5075603;28;8770;-76
2022/06/19 07:12:46;;;;;;;;;17.00;17.00;27.50;35.70;;;;;;5075736;28;11430;-76
2022/06/19 07:15:12;;;;;;;;;16.00;16.00;27.50;35.70;;;;;;5076846;28;9427;-76
2022/06/19 07:17:38;;;;;;;;;16.33;16.33;27.40;35.10;;;;;;5085951;28;11592;-76
2022/06/19 07:20:05;;;;;;;;;15.67;15.67;27.50;35.20;;;;;;5085355;28;8760;-76
2022/06/19 07:22:31;;;;;;;;;17.33;17.33;27.60;34.70;;;;;;5079583;28;8840;-76
2022/06/19 07:24:57;;;;;;;;;16.33;16.33;27.60;34.40;;;;;;5082642;28;11454;-78
2022/06/19 07:27:24;;;;;;;;;16.00;16.00;27.70;34.60;;;;;;5078677;28;8815;-79
2022/06/19 07:29:50;;;;;;;;;18.00;18.00;27.80;34.80;;;;;;5094888;28;8789;-78
2022/06/19 07:32:16;;;;;;;;;18.33;18.33;27.80;34.90;;;;;;5095934;28;8769;-78
2022/06/19 07:34:42;;;;;;;;;14.00;14.00;27.80;34.70;;;;;;5091902;28;8796;-77
2022/06/19 07:37:13;;;;;;;;;14.67;14.67;27.90;34.70;;;;;;5091092;28;8800;-73
2022/06/19 07:39:40;;;;;;;;;16.67;16.67;27.90;34.20;;;;;;5095381;28;8810;-74
2022/06/19 07:42:08;;;;;;;;;17.67;17.67;28.10;34.20;;;;;;5096151;28;11463;-77
2022/06/19 07:44:35;;;;;;;;;19.33;19.33;28.10;34.30;;;;;;5095012;28;8756;-76
2022/06/19 07:52:33;;;;;;;;;20.33;20.33;28.30;34.00;;;;;;5086021;28;8758;-73
2022/06/19 07:54:59;;;;;;;;;20.67;20.67;28.40;34.10;;;;;;5074684;28;8809;-75
2022/06/19 07:57:26;;;;;;;;;26.33;26.33;28.40;34.10;;;;;;5074503;28;8792;-75
2022/06/19 07:59:51;;;;;;;;;32.67;31.33;28.50;34.00;;;;;;5077044;28;8770;-74
2022/06/19 08:02:17;;;;;;;;;25.00;25.00;28.50;33.90;;;;;;5080177;28;8960;-76
2022/06/19 08:04:43;;;;;;;;;21.67;20.67;28.50;34.60;;;;;;5094527;28;9485;-75
2022/06/19 08:07:15;;;;;;;;;24.33;24.33;28.60;34.30;;;;;;5094932;28;8834;-79
2022/06/19 08:09:42;;;;;;;;;20.00;20.00;28.70;34.10;;;;;;5077157;28;8819;-76
2022/06/19 08:12:10;;;;;;;;;19.33;19.33;28.60;34.00;;;;;;5094922;28;11457;-76
2022/06/19 08:14:36;;;;;;;;;16.67;16.67;28.80;34.10;;;;;;5094335;28;11511;-76
2022/06/19 08:17:02;;;;;;;;;18.67;18.67;28.90;34.10;;;;;;5094961;28;8776;-76
2022/06/19 08:19:28;;;;;;;;;19.00;19.00;28.80;33.60;;;;;;5094491;28;12187;-76
2022/06/19 08:21:54;;;;;;;;;16.00;16.00;28.90;34.00;;;;;;5094658;28;8852;-75
2022/06/19 08:24:19;;;;;;;;;16.00;16.00;28.90;33.20;;;;;;5094859;28;8805;-77
2022/06/19 08:26:45;;;;;;;;;13.33;13.33;28.90;33.80;;;;;;5094541;28;9405;-75
2022/06/19 08:29:11;;;;;;;;;16.33;16.33;29.00;33.70;;;;;;5093931;28;8799;-75
2022/06/19 08:31:37;;;;;;;;;16.00;16.00;29.10;33.50;;;;;;5094388;28;11415;-76
2022/06/19 08:34:03;;;;;;;;;16.00;16.00;29.10;33.20;;;;;;5094411;28;8772;-76
2022/06/19 08:36:33;;;;;;;;;19.33;19.33;29.20;33.20;;;;;;5094484;28;8790;-76
2022/06/19 08:39:03;;;;;;;;;20.67;20.67;29.30;33.60;;;;;;5094646;28;11461;-76
2022/06/19 08:41:43;;;;;;;;;23.67;23.67;29.40;33.40;;;;;;5094674;28;8755;-76
2022/06/19 08:44:24;;;;;;;;;21.00;21.00;29.50;33.60;;;;;;5094141;28;8788;-76
2022/06/19 08:46:56;;;;;;;;;18.00;18.00;29.60;33.50;;;;;;5094183;28;11461;-75
2022/06/19 08:49:39;;;;;;;;;17.00;17.00;29.70;32.70;;;;;;5094208;28;11463;-75
2022/06/19 08:52:24;;;;;;;;;15.67;15.67;29.70;32.40;;;;;;5094176;28;11435;-76
2022/06/19 08:55:05;;;;;;;;;18.00;18.00;29.70;32.40;;;;;;5094045;28;11522;-77
2022/06/19 08:57:56;;;;;;;;;15.33;15.33;29.80;32.20;;;;;;5094314;28;11536;-76
2022/06/19 09:00:49;;;;;;;;;13.67;13.67;29.80;32.60;;;;;;5093732;28;11421;-77
2022/06/19 09:05:36;;;;;;;;;14.00;13.75;30.00;32.60;;;;;;5093722;28;12078;-77
2022/06/19 09:06:36;;;;;;;;;12.00;12.00;30.10;32.00;;;;;;5094283;28;11461;-75
2022/06/19 09:09:23;;;;;;;;;14.50;14.50;30.20;31.20;;;;;;5078489;28;11545;-76
2022/06/19 09:12:24;;;;;;;;;14.75;14.75;30.30;31.60;;;;;;5098121;28;11580;-77
2022/06/19 09:15:14;;;;;;;;;10.25;10.25;30.40;31.40;;;;;;5015877;28;11449;-76
2022/06/19 09:17:53;;;;;;;;;12.50;12.50;30.60;31.30;;;;;;5094099;28;11521;-80
2022/06/19 09:20:31;;;;;;;;;11.25;11.25;30.50;31.10;;;;;;5097946;28;11526;-75
2022/06/19 09:23:15;;;;;;;;;13.00;11.75;30.70;30.40;;;;;;5097865;28;11485;-75
2022/06/19 09:26:13;;;;;;;;;15.00;15.00;30.80;32.10;;;;;;5097881;28;12068;-75
2022/06/19 09:29:00;;;;;;;;;11.25;11.25;31.00;31.30;;;;;;5015480;28;11648;-74
2022/06/19 09:31:32;;;;;;;;;11.00;11.00;31.00;31.60;;;;;;5015591;28;11469;-75
2022/06/19 09:34:01;;;;;;;;;13.00;13.00;31.20;30.10;;;;;;5015617;28;11476;-75
2022/06/19 09:36:39;;;;;;;;;12.00;12.00;31.20;30.10;;;;;;5015495;28;11469;-74
2022/06/19 09:39:22;;;;;;;;;16.00;16.00;31.30;30.20;;;;;;5015325;28;11588;-76
2022/06/19 09:41:59;;;;;;;;;11.00;11.00;31.50;30.00;;;;;;5015534;28;11859;-75
2022/06/19 09:44:54;;;;;;;;;11.67;11.67;31.50;29.40;;;;;;5015300;28;11556;-75
2022/06/19 09:47:42;;;;;;;;;12.33;12.33;31.60;29.70;;;;;;5015271;28;12151;-75
2022/06/19 09:50:20;;;;;;;;;11.33;11.33;31.70;29.60;;;;;;5015275;28;11487;-75
2022/06/19 09:53:09;;;;;;;;;9.00;9.00;31.90;30.00;;;;;;5015213;28;11511;-75
2022/06/19 09:55:40;;;;;;;;;11.67;11.67;32.00;29.00;;;;;;5015210;28;11500;-75
2022/06/19 09:58:22;;;;;;;;;9.00;9.00;32.10;28.80;;;;;;5015123;28;12157;-75
2022/06/19 10:00:51;;;;;;;;;11.25;11.25;32.00;28.50;;;;;;5015175;28;11423;-75
2022/06/19 10:03:27;;;;;;;;;11.33;11.33;32.10;28.90;;;;;;5023420;28;12133;-75
2022/06/19 10:06:38;;;;;;;;;12.33;12.33;32.30;29.20;;;;;;5097264;28;11450;-74
2022/06/19 10:09:18;;;;;;;;;13.67;13.67;32.50;28.80;;;;;;5014724;28;11513;-74
2022/06/19 10:11:45;;;;;;;;;9.00;9.00;32.40;27.90;;;;;;5014981;28;11497;-74
2022/06/19 10:14:31;;;;;;;;;12.00;12.00;32.40;28.80;;;;;;4998279;28;11479;-74
2022/06/19 10:17:30;;;;;;;;;12.75;12.75;32.60;28.80;;;;;;5014881;28;11460;-75
2022/06/19 10:20:16;;;;;;;;;13.33;13.33;32.80;27.70;;;;;;5014737;28;11568;-74
2022/06/19 10:23:05;;;;;;;;;10.00;10.00;32.80;27.70;;;;;;5014052;28;11573;-74
2022/06/19 10:25:44;;;;;;;;;10.25;10.25;32.90;27.00;;;;;;4978631;28;11474;-74
2022/06/19 10:28:43;;;;;;;;;10.25;10.25;33.00;27.00;;;;;;5014621;28;11558;-74
2022/06/19 10:31:36;;;;;;;;;10.00;10.00;33.00;27.00;;;;;;5014878;28;11490;-74
2022/06/19 10:34:04;;;;;;;;;10.00;10.00;33.20;26.70;;;;;;5015571;28;11510;-75
2022/06/19 10:36:44;;;;;;;;;9.50;9.50;33.40;26.90;;;;;;5014634;28;11445;-75
2022/06/19 10:39:15;;;;;;;;;8.50;8.50;33.60;26.30;;;;;;5036321;28;11473;-75
2022/06/19 10:42:14;;;;;;;;;11.75;11.75;33.90;26.30;;;;;;5096692;28;11403;-75
2022/06/19 10:45:00;;;;;;;;;9.25;9.25;33.90;26.30;;;;;;5095021;28;11523;-74
2022/06/19 10:47:53;;;;;;;;;13.00;13.00;34.20;25.40;;;;;;5083320;28;11432;-74
2022/06/19 10:50:50;;;;;;;;;10.00;10.00;33.90;25.40;;;;;;5086881;28;11481;-74
2022/06/19 10:53:34;;;;;;;;;8.25;8.25;34.00;25.50;;;;;;5076200;28;11647;-75
2022/06/19 10:56:28;;;;;;;;;10.50;10.50;34.20;24.70;;;;;;5080235;28;12078;-74
2022/06/19 10:58:55;;;;;;;;;10.00;10.00;34.50;24.30;;;;;;5086053;28;11402;-74
2022/06/19 11:04:20;;;;;;;;;10.00;10.00;34.50;24.20;;;;;;5075833;28;11371;-74
2022/06/19 11:06:56;;;;;;;;;10.25;10.25;34.40;24.40;;;;;;5078802;28;11426;-74
2022/06/19 11:09:31;;;;;;;;;10.50;10.50;34.50;23.70;;;;;;5081858;28;11482;-74
2022/06/19 11:12:23;;;;;;;;;9.00;9.00;34.60;22.80;;;;;;5077441;28;11446;-74
2022/06/19 11:15:01;;;;;;;;;9.75;9.75;34.80;22.50;;;;;;5086051;28;11438;-74
2022/06/19 11:17:32;;;;;;;;;10.00;10.00;35.10;22.60;;;;;;5091873;28;11405;-74
2022/06/19 11:19:58;;;;;;;;;7.50;7.50;35.50;22.40;;;;;;5094680;28;12113;-76
2022/06/19 11:22:41;;;;;;;;;7.75;7.75;35.50;22.80;;;;;;5095884;28;11502;-76
2022/06/19 11:25:19;;;;;;;;;7.75;7.75;35.40;22.40;;;;;;5092709;28;11413;-76
2022/06/19 11:27:57;;;;;;;;;8.00;8.00;35.90;22.40;;;;;;5089473;28;11420;-76
2022/06/19 11:30:37;;;;;;;;;8.00;8.00;36.20;22.40;;;;;;5089014;28;11393;-75
2022/06/19 11:33:09;;;;;;;;;9.00;9.00;36.50;21.90;;;;;;5089521;28;11388;-77
2022/06/19 11:35:50;;;;;;;;;6.00;6.00;36.40;22.00;;;;;;5087004;28;11522;-75
2022/06/19 11:38:31;;;;;;;;;9.75;9.75;36.30;23.10;;;;;;5088644;28;11376;-76
2022/06/19 11:40:57;;;;;;;;;10.75;10.75;36.60;23.20;;;;;;5085011;28;11435;-77
2022/06/19 11:43:29;;;;;;;;;8.50;8.50;36.40;21.40;;;;;;5093904;28;11432;-75
2022/06/19 11:46:13;;;;;;;;;7.75;7.75;36.60;21.50;;;;;;5090506;28;8752;-74
2022/06/19 11:48:39;;;;;;;;;8.75;8.75;35.80;21.60;;;;;;5085392;28;11594;-77
2022/06/19 11:51:16;;;;;;;;;9.75;9.75;35.90;22.10;;;;;;5081900;28;11450;-78
2022/06/19 11:53:43;;;;;;;;;10.25;10.25;36.30;21.40;;;;;;5083222;28;8882;-77
2022/06/19 11:56:24;;;;;;;;;7.75;7.75;36.10;21.90;;;;;;5074024;28;11427;-78
2022/06/19 11:58:59;;;;;;;;;9.25;9.25;36.70;21.30;;;;;;5080842;28;11424;-76
2022/06/19 12:01:45;;;;;;;;;7.00;7.00;37.10;21.30;;;;;;5082726;28;11428;-78
2022/06/19 12:04:33;;;;;;;;;7.75;7.75;37.60;21.60;;;;;;5074084;28;11481;-77
2022/06/19 12:07:05;;;;;;;;;8.50;8.50;38.10;21.10;;;;;;5073956;28;11442;-75
2022/06/19 12:09:42;;;;;;;;;11.00;11.00;37.90;20.50;;;;;;5075545;28;11422;-77
2022/06/19 12:12:11;;;;;;;;;10.25;10.25;38.30;20.50;;;;;;5075036;28;11547;-79
2022/06/19 12:15:14;;;;;;;;;10.00;10.00;38.10;20.20;;;;;;5074368;28;11425;-77
2022/06/19 12:17:45;;;;;;;;;9.75;9.75;37.90;20.10;;;;;;5074456;28;11459;-75
2022/06/19 12:20:11;;;;;;;;;7.50;7.50;37.30;20.50;;;;;;5074368;28;11388;-75
2022/06/19 12:22:50;;;;;;;;;9.00;9.00;37.00;20.90;;;;;;5074625;28;11418;-74
2022/06/19 12:25:33;;;;;;;;;10.50;10.50;37.40;21.00;;;;;;5084348;28;8804;-74
2022/06/19 12:28:04;;;;;;;;;8.75;8.75;38.10;20.90;;;;;;5094456;28;11459;-75
2022/06/19 12:30:39;;;;;;;;;9.25;9.25;38.40;20.40;;;;;;5085579;28;11416;-74
2022/06/19 12:33:17;;;;;;;;;7.50;7.50;38.70;20.70;;;;;;5087521;28;11410;-73
2022/06/19 12:35:47;;;;;;;;;7.75;7.75;38.70;20.20;;;;;;5088642;28;11419;-74
2022/06/19 12:38:15;;;;;;;;;9.50;9.50;38.30;20.20;;;;;;5086937;28;11401;-76
2022/06/19 12:41:06;;;;;;;;;8.50;8.50;38.50;20.40;;;;;;5089291;28;11439;-78
2022/06/19 12:43:52;;;;;;;;;9.75;9.75;38.10;20.20;;;;;;5092434;28;11392;-77
2022/06/19 12:47:00;;;;;;;;;8.50;8.50;37.70;20.60;;;;;;5077809;28;11391;-74
2022/06/19 12:49:44;;;;;;;;;7.75;7.75;37.70;20.50;;;;;;5078354;28;11476;-75
2022/06/19 12:52:21;;;;;;;;;9.00;9.00;37.90;20.70;;;;;;5092272;28;11398;-73
2022/06/19 12:55:05;;;;;;;;;9.75;9.75;37.90;20.80;;;;;;5091963;28;11473;-74
2022/06/19 12:57:46;;;;;;;;;10.25;10.25;37.80;20.50;;;;;;5092411;28;11508;-73
2022/06/19 13:00:34;;;;;;;;;7.75;7.75;38.00;21.20;;;;;;5071410;28;11423;-75
2022/06/19 13:03:12;;;;;;;;;8.25;8.25;38.30;20.50;;;;;;5091775;28;11563;-73
2022/06/19 13:06:03;;;;;;;;;8.25;8.25;38.60;20.30;;;;;;5091255;28;11401;-73
2022/06/19 13:09:07;;;;;;;;;9.25;9.25;38.30;20.50;;;;;;5074896;28;11481;-73
2022/06/19 13:11:54;;;;;;;;;10.00;10.00;37.70;20.90;;;;;;5090809;28;11375;-74